Time;durP1;ratioP1;P1;durP2;ratioP2;P2;SDS_P1;SDS_P2;PMS_P1;PMS_P2;Temp;Humidity;BMP_temperature;BMP_pressure;BME280_temperature;BME280_humidity;BME280_pressure;Samples;Min_cycle;Max_cycle;Signal;HPM_P1;HPM_P2
2023/09/16 00:01:09;;;;;;;4.60;4.20;;;23.40;99.90;;;;;;6230221;28;89127;-73
2023/09/16 00:04:11;;;;;;;4.65;4.25;;;23.40;99.90;;;;;;6227653;28;89053;-73
2023/09/16 00:07:14;;;;;;;5.13;4.63;;;23.40;99.90;;;;;;6225860;28;89239;-74
2023/09/16 00:10:17;;;;;;;4.80;4.40;;;23.30;99.90;;;;;;6227186;28;89123;-73
2023/09/16 00:13:19;;;;;;;5.00;4.50;;;23.40;99.90;;;;;;6223238;28;89583;-73
2023/09/16 00:16:21;;;;;;;4.85;4.45;;;23.40;99.90;;;;;;6225188;28;88970;-73
2023/09/16 00:19:23;;;;;;;5.22;4.72;;;23.40;99.90;;;;;;6228472;28;88540;-75
2023/09/16 00:22:25;;;;;;;5.25;4.60;;;23.40;99.90;;;;;;6225596;28;89111;-74
2023/09/16 00:25:29;;;;;;;5.15;4.68;;;23.30;99.90;;;;;;6223309;28;89458;-73
2023/09/16 00:28:31;;;;;;;5.22;4.78;;;23.40;99.90;;;;;;6226969;28;89907;-73
2023/09/16 00:31:34;;;;;;;4.93;4.53;;;23.40;99.90;;;;;;6229532;28;88836;-73
2023/09/16 00:34:36;;;;;;;5.32;4.53;;;23.30;99.90;;;;;;6227912;28;87956;-74
2023/09/16 00:37:38;;;;;;;5.15;4.63;;;23.40;99.90;;;;;;6226549;28;89199;-73
2023/09/16 00:40:41;;;;;;;5.45;4.60;;;23.40;99.90;;;;;;6226966;28;88991;-74
2023/09/16 00:43:43;;;;;;;5.30;4.80;;;23.40;99.90;;;;;;6224446;28;89997;-74
2023/09/16 00:46:45;;;;;;;4.90;4.50;;;23.30;99.90;;;;;;6224180;28;89457;-73
2023/09/16 00:49:47;;;;;;;7.85;5.72;;;23.30;99.90;;;;;;6226394;28;88347;-74
2023/09/16 00:52:54;;;;;;;5.55;4.82;;;23.30;99.90;;;;;;6228989;28;89249;-74
2023/09/16 00:55:58;;;;;;;4.70;4.30;;;23.30;99.90;;;;;;6227909;28;89246;-74
2023/09/16 00:59:00;;;;;;;5.13;4.65;;;23.30;99.90;;;;;;6228899;28;89213;-74
2023/09/16 01:02:03;;;;;;;4.95;4.43;;;23.30;99.90;;;;;;6228432;28;89416;-74
2023/09/16 01:05:12;;;;;;;4.80;4.40;;;23.30;99.90;;;;;;6224783;28;89259;-74
2023/09/16 01:08:16;;;;;;;5.25;4.63;;;23.30;99.90;;;;;;6222796;28;89263;-73
2023/09/16 01:11:19;;;;;;;5.07;4.65;;;23.30;99.90;;;;;;6229160;28;89365;-74
2023/09/16 01:14:23;;;;;;;5.10;4.60;;;23.30;99.90;;;;;;6227341;28;89069;-75
2023/09/16 01:17:32;;;;;;;7.45;5.47;;;23.30;99.90;;;;;;6226171;28;89081;-73
2023/09/16 01:20:38;;;;;;;5.22;4.70;;;23.30;99.90;;;;;;6227521;28;88380;-74
2023/09/16 01:23:40;;;;;;;5.18;4.70;;;23.30;99.90;;;;;;6220097;28;89304;-74
2023/09/16 01:26:44;;;;;;;5.20;4.55;;;23.30;99.90;;;;;;6224250;28;89049;-74
2023/09/16 01:29:46;;;;;;;5.40;4.90;;;23.30;99.90;;;;;;6227254;28;90311;-73
2023/09/16 01:32:54;;;;;;;5.03;4.53;;;23.30;99.90;;;;;;6228181;28;89212;-73
2023/09/16 01:36:03;;;;;;;5.60;4.90;;;23.30;99.90;;;;;;6227689;28;89388;-73
2023/09/16 01:39:08;;;;;;;4.95;4.47;;;23.30;99.90;;;;;;6226614;28;88464;-73
2023/09/16 01:42:12;;;;;;;5.43;4.88;;;23.30;99.90;;;;;;6225056;28;88640;-73
2023/09/16 01:45:14;;;;;;;5.00;4.50;;;23.30;99.90;;;;;;6225333;28;89094;-74
2023/09/16 01:48:16;;;;;;;4.80;4.40;;;23.20;99.90;;;;;;6229953;28;89532;-75
2023/09/16 01:51:18;;;;;;;4.88;4.40;;;23.30;99.90;;;;;;6226424;28;88000;-74
2023/09/16 01:54:20;;;;;;;4.90;4.50;;;23.30;99.90;;;;;;6231345;28;88093;-75
2023/09/16 01:57:23;;;;;;;4.63;4.22;;;23.30;99.90;;;;;;6231784;28;89046;-75
2023/09/16 02:00:25;;;;;;;5.63;4.68;;;23.20;99.90;;;;;;6229195;28;90439;-73
2023/09/16 02:03:27;;;;;;;4.90;4.50;;;23.30;99.90;;;;;;6227963;28;87982;-74
2023/09/16 02:06:29;;;;;;;5.40;4.90;;;23.30;99.90;;;;;;6230672;28;89360;-72
2023/09/16 02:09:31;;;;;;;5.72;5.13;;;23.20;99.90;;;;;;6221743;28;89166;-75
2023/09/16 02:12:35;;;;;;;5.55;5.05;;;23.20;99.90;;;;;;6230349;28;89153;-74
2023/09/16 02:15:36;;;;;;;5.90;5.10;;;23.30;99.90;;;;;;6224637;28;89145;-74
2023/09/16 02:18:38;;;;;;;7.25;5.30;;;23.30;99.90;;;;;;6220304;28;89215;-75
2023/09/16 02:21:40;;;;;;;5.43;4.95;;;23.20;99.90;;;;;;6224290;28;88342;-77
2023/09/16 02:24:43;;;;;;;5.65;5.15;;;23.20;99.90;;;;;;6227796;28;89028;-74
2023/09/16 02:27:46;;;;;;;5.57;4.70;;;23.20;99.90;;;;;;6232012;28;89141;-76
2023/09/16 02:30:49;;;;;;;6.00;5.35;;;23.20;99.90;;;;;;6226352;28;90169;-74
2023/09/16 02:33:51;;;;;;;5.80;5.20;;;23.20;99.90;;;;;;6229613;28;89397;-75
2023/09/16 02:36:53;;;;;;;5.30;4.80;;;23.20;99.90;;;;;;6226731;28;89078;-76
2023/09/16 02:39:55;;;;;;;5.20;4.70;;;23.20;99.90;;;;;;6223585;28;89041;-75
2023/09/16 02:42:58;;;;;;;5.05;4.55;;;23.20;99.90;;;;;;6230763;28;89055;-75
2023/09/16 02:46:00;;;;;;;5.22;4.72;;;23.20;99.90;;;;;;6229792;28;89189;-74
2023/09/16 02:49:03;;;;;;;4.80;4.40;;;23.20;99.90;;;;;;6231481;28;89071;-75
2023/09/16 02:52:05;;;;;;;5.90;5.18;;;23.20;99.90;;;;;;6225608;28;89078;-74
2023/09/16 02:55:07;;;;;;;6.32;5.28;;;23.20;99.90;;;;;;6226542;28;89070;-75
2023/09/16 02:58:11;;;;;;;6.25;5.38;;;23.20;99.90;;;;;;6221710;28;89019;-75
2023/09/16 03:01:13;;;;;;;5.32;4.82;;;23.20;99.90;;;;;;6228123;28;90203;-74
2023/09/16 03:04:15;;;;;;;6.00;4.95;;;23.10;99.90;;;;;;6229768;28;89101;-75
2023/09/16 03:07:17;;;;;;;5.57;4.97;;;23.10;99.90;;;;;;6220997;28;87967;-75
2023/09/16 03:10:19;;;;;;;5.50;5.00;;;23.10;99.90;;;;;;6224996;28;89010;-76
2023/09/16 03:13:22;;;;;;;6.05;5.05;;;23.10;99.90;;;;;;6230532;28;89119;-75
2023/09/16 03:16:25;;;;;;;6.22;5.20;;;23.10;99.90;;;;;;6224689;28;89033;-76
2023/09/16 03:19:28;;;;;;;5.28;4.78;;;23.10;99.90;;;;;;6229236;28;89047;-76
2023/09/16 03:22:30;;;;;;;5.72;5.22;;;23.10;99.90;;;;;;6221956;28;87194;-76
2023/09/16 03:25:32;;;;;;;5.57;5.07;;;23.10;99.90;;;;;;6220710;28;89061;-75
2023/09/16 03:28:35;;;;;;;5.57;4.95;;;23.10;99.90;;;;;;6226332;28;87792;-74
2023/09/16 03:31:37;;;;;;;5.53;4.93;;;23.00;99.90;;;;;;6226575;28;90015;-73
2023/09/16 03:34:39;;;;;;;5.68;5.18;;;23.10;99.90;;;;;;6221700;28;89526;-74
2023/09/16 03:37:41;;;;;;;5.55;5.05;;;23.10;99.90;;;;;;6229095;28;89357;-74
2023/09/16 03:40:43;;;;;;;5.60;5.10;;;23.00;99.90;;;;;;6226769;28;89044;-74
2023/09/16 03:43:46;;;;;;;5.60;5.03;;;23.00;99.90;;;;;;6230101;28;89012;-74
2023/09/16 03:46:50;;;;;;;9.35;6.82;;;23.10;99.90;;;;;;6216433;28;89106;-74
2023/09/16 03:49:52;;;;;;;6.00;5.40;;;23.00;99.90;;;;;;6224390;28;88910;-74
2023/09/16 03:52:54;;;;;;;6.28;5.68;;;23.00;99.90;;;;;;6231082;28;88330;-74
2023/09/16 03:55:56;;;;;;;6.15;5.55;;;23.00;99.90;;;;;;6222611;28;89606;-74
2023/09/16 03:59:00;;;;;;;5.55;5.05;;;23.00;99.90;;;;;;6228138;28;88970;-73
2023/09/16 04:02:02;;;;;;;5.97;4.82;;;23.00;99.90;;;;;;6225757;28;90090;-73
2023/09/16 04:05:04;;;;;;;5.72;5.20;;;23.00;99.90;;;;;;6227870;28;88976;-76
2023/09/16 04:08:06;;;;;;;6.30;5.70;;;23.00;99.90;;;;;;6229802;28;88022;-75
2023/09/16 04:11:08;;;;;;;5.90;5.40;;;23.00;99.90;;;;;;6227952;28;89540;-75
2023/09/16 04:14:12;;;;;;;5.60;5.10;;;23.00;99.90;;;;;;6225581;28;89091;-75
2023/09/16 04:17:14;;;;;;;7.00;5.25;;;23.00;99.90;;;;;;6226036;28;89140;-74
2023/09/16 04:20:16;;;;;;;5.80;5.28;;;23.00;99.90;;;;;;6229062;28;89147;-75
2023/09/16 04:23:18;;;;;;;5.30;4.80;;;23.00;99.90;;;;;;6223276;28;88076;-74
2023/09/16 04:26:20;;;;;;;5.55;5.05;;;23.00;99.90;;;;;;6225763;28;89842;-74
2023/09/16 04:29:24;;;;;;;5.20;4.63;;;22.90;99.90;;;;;;6229338;28;89563;-75
2023/09/16 04:32:26;;;;;;;6.63;4.78;;;22.90;99.90;;;;;;6209828;28;89976;-74
2023/09/16 04:35:28;;;;;;;6.72;5.70;;;22.90;99.90;;;;;;6228133;28;89324;-75
2023/09/16 04:38:30;;;;;;;5.38;4.97;;;23.00;99.90;;;;;;6228883;28;89003;-75
2023/09/16 04:41:32;;;;;;;5.50;5.00;;;22.90;99.90;;;;;;6228289;28;89036;-75
2023/09/16 04:44:38;;;;;;;5.15;4.75;;;22.90;99.90;;;;;;6219559;28;89040;-75
2023/09/16 04:47:40;;;;;;;5.55;5.05;;;22.90;99.90;;;;;;6222204;28;89237;-75
2023/09/16 04:50:45;;;;;;;5.60;5.10;;;22.90;99.90;;;;;;6229590;28;88549;-75
2023/09/16 04:53:49;;;;;;;5.32;4.82;;;22.90;99.90;;;;;;6228194;28;87175;-75
2023/09/16 04:56:51;;;;;;;6.65;5.28;;;22.90;99.80;;;;;;6226560;28;89007;-75
2023/09/16 04:59:55;;;;;;;5.03;4.63;;;22.90;99.70;;;;;;6228802;28;88933;-74
2023/09/16 05:02:57;;;;;;;6.90;5.50;;;22.90;99.80;;;;;;6221398;28;90445;-74
2023/09/16 05:05:59;;;;;;;6.35;5.72;;;22.90;99.80;;;;;;6228453;28;88344;-75
2023/09/16 05:09:01;;;;;;;5.05;4.65;;;22.90;99.90;;;;;;6226687;28;87820;-75
2023/09/16 05:12:03;;;;;;;5.57;5.03;;;22.80;99.90;;;;;;6228116;28;89859;-75
2023/09/16 05:15:08;;;;;;;5.03;4.53;;;22.90;99.90;;;;;;6227965;28;89019;-74
2023/09/16 05:18:10;;;;;;;5.63;5.13;;;22.80;99.90;;;;;;6227397;28;89410;-75
2023/09/16 05:21:12;;;;;;;5.55;5.05;;;22.80;99.90;;;;;;6226913;28;88280;-74
2023/09/16 05:24:14;;;;;;;5.80;5.15;;;22.80;99.90;;;;;;6217720;28;88258;-74
2023/09/16 05:27:16;;;;;;;5.47;4.97;;;22.90;99.90;;;;;;6226948;28;88932;-73
2023/09/16 05:30:19;;;;;;;5.20;4.70;;;22.80;99.90;;;;;;6231205;28;89098;-73
2023/09/16 05:33:22;;;;;;;4.80;4.40;;;22.80;99.70;;;;;;6231478;28;90130;-73
2023/09/16 05:36:27;;;;;;;5.28;4.78;;;22.90;99.60;;;;;;6230882;28;91286;-73
2023/09/16 05:39:29;;;;;;;5.00;4.60;;;22.90;99.60;;;;;;6231245;28;88959;-73
2023/09/16 05:42:31;;;;;;;5.47;4.90;;;22.80;99.70;;;;;;6230042;28;89065;-73
2023/09/16 05:45:36;;;;;;;5.28;4.32;;;22.80;99.90;;;;;;6234035;28;89122;-73
2023/09/16 05:48:38;;;;;;;5.38;4.60;;;22.80;99.90;;;;;;6230430;28;89034;-73
2023/09/16 05:51:42;;;;;;;5.10;4.60;;;22.80;99.90;;;;;;6221757;28;89118;-73
2023/09/16 05:54:44;;;;;;;4.55;4.07;;;22.80;99.90;;;;;;6231091;28;88342;-73
2023/09/16 05:57:46;;;;;;;5.45;4.40;;;22.80;99.90;;;;;;6228920;28;89202;-74
2023/09/16 06:00:55;;;;;;;5.22;4.45;;;22.80;99.90;;;;;;6233407;28;89057;-76
2023/09/16 06:03:57;;;;;;;4.90;4.35;;;22.80;99.90;;;;;;6219314;28;89861;-75
2023/09/16 06:06:59;;;;;;;4.50;4.10;;;22.80;99.90;;;;;;6231922;28;89484;-74
2023/09/16 06:10:01;;;;;;;5.38;4.45;;;22.80;99.90;;;;;;6227313;28;88994;-75
2023/09/16 06:13:03;;;;;;;7.65;4.50;;;22.80;99.90;;;;;;6230344;28;88123;-75
2023/09/16 06:16:08;;;;;;;10.55;5.03;;;22.80;99.90;;;;;;6233139;28;89346;-76
2023/09/16 06:19:10;;;;;;;6.60;4.80;;;22.90;99.90;;;;;;6232686;28;89369;-75
2023/09/16 06:22:13;;;;;;;5.90;4.63;;;22.90;99.90;;;;;;6233300;28;89104;-77
2023/09/16 06:25:16;;;;;;;4.68;4.28;;;22.90;99.90;;;;;;6231709;28;88378;-75
2023/09/16 06:28:18;;;;;;;5.80;4.30;;;22.90;99.90;;;;;;6230454;28;89153;-75
2023/09/16 06:31:21;;;;;;;4.78;4.38;;;22.90;99.90;;;;;;6221508;28;89027;-75
2023/09/16 06:34:23;;;;;;;5.30;4.78;;;22.90;99.90;;;;;;6223332;28;90071;-72
2023/09/16 06:37:25;;;;;;;9.60;4.68;;;22.90;99.90;;;;;;6224470;28;89146;-71
2023/09/16 06:40:27;;;;;;;5.45;4.88;;;22.90;99.90;;;;;;6223341;28;89042;-71
2023/09/16 06:43:29;;;;;;;8.63;5.28;;;22.90;99.90;;;;;;6217435;28;89050;-72
2023/09/16 06:46:32;;;;;;;4.93;4.32;;;22.90;99.90;;;;;;6233473;28;89090;-73
2023/09/16 06:49:34;;;;;;;5.63;4.70;;;22.90;99.90;;;;;;6228935;28;88994;-73
2023/09/16 06:52:36;;;;;;;7.70;4.80;;;22.90;99.90;;;;;;6231613;28;89024;-73
2023/09/16 06:55:38;;;;;;;5.70;4.70;;;22.90;99.90;;;;;;6233141;28;88350;-71
2023/09/16 06:58:40;;;;;;;5.63;4.60;;;22.90;99.90;;;;;;6229664;28;89176;-73
2023/09/16 07:01:43;;;;;;;5.55;4.93;;;22.90;99.90;;;;;;6230816;28;89058;-74
2023/09/16 07:04:46;;;;;;;5.35;4.85;;;22.90;99.90;;;;;;6229856;28;89952;-71
2023/09/16 07:07:48;;;;;;;5.55;4.97;;;22.90;99.90;;;;;;6229226;28;89959;-70
2023/09/16 07:10:50;;;;;;;9.60;5.07;;;22.90;99.90;;;;;;6225350;28;89400;-69
2023/09/16 07:13:53;;;;;;;6.03;5.25;;;22.90;99.90;;;;;;6223540;28;87931;-70
2023/09/16 07:16:57;;;;;;;7.65;5.22;;;23.00;99.90;;;;;;6231543;28;89189;-71
2023/09/16 07:19:59;;;;;;;5.55;5.03;;;22.90;99.90;;;;;;6230499;28;89086;-70
2023/09/16 07:23:01;;;;;;;8.30;5.50;;;23.00;99.90;;;;;;6227527;28;89144;-71
2023/09/16 07:26:03;;;;;;;10.07;6.25;;;23.00;99.90;;;;;;6222444;28;88319;-71
2023/09/16 07:29:05;;;;;;;12.65;7.45;;;23.00;99.90;;;;;;6224870;28;89130;-70
2023/09/16 07:32:08;;;;;;;17.77;7.00;;;23.00;99.90;;;;;;6231509;28;89028;-71
2023/09/16 07:35:10;;;;;;;11.90;7.13;;;23.00;99.90;;;;;;6222430;28;89900;-72
2023/09/16 07:38:12;;;;;;;14.07;7.75;;;23.00;99.90;;;;;;6230077;28;88985;-71
2023/09/16 07:41:14;;;;;;;15.95;9.10;;;23.00;99.90;;;;;;6212119;28;89618;-71
2023/09/16 07:44:16;;;;;;;12.50;6.43;;;23.00;99.90;;;;;;6221825;28;89046;-71
2023/09/16 07:47:19;;;;;;;11.18;6.78;;;23.00;99.90;;;;;;6225209;28;89143;-73
2023/09/16 07:50:21;;;;;;;9.93;6.43;;;23.00;99.90;;;;;;6230068;28;89534;-72
2023/09/16 07:53:23;;;;;;;12.98;6.82;;;23.00;99.90;;;;;;6230483;28;88144;-71
2023/09/16 07:56:25;;;;;;;16.13;6.70;;;23.00;99.90;;;;;;6225779;28;88976;-72
2023/09/16 07:59:27;;;;;;;29.67;9.90;;;23.00;99.90;;;;;;6228927;28;89159;-71
2023/09/16 08:02:31;;;;;;;22.05;10.27;;;23.00;99.90;;;;;;6230123;28;89035;-71
2023/09/16 08:05:33;;;;;;;28.35;11.18;;;23.00;99.90;;;;;;6229398;28;89994;-71
2023/09/16 08:08:35;;;;;;;28.60;11.13;;;23.00;99.90;;;;;;6229838;28;89088;-71
2023/09/16 08:11:37;;;;;;;21.85;10.18;;;23.00;99.90;;;;;;6229154;28;89100;-71
2023/09/16 08:14:38;;;;;;;20.95;9.90;;;23.00;99.90;;;;;;6229859;28;89118;-71
2023/09/16 08:17:42;;;;;;;17.40;8.18;;;23.00;99.90;;;;;;6229573;28;89478;-72
2023/09/16 08:20:45;;;;;;;17.88;9.07;;;23.00;99.90;;;;;;6231014;28;89080;-72
2023/09/16 08:23:47;;;;;;;16.88;8.48;;;23.10;99.90;;;;;;6223470;28;89250;-71
2023/09/16 08:26:49;;;;;;;13.13;7.68;;;23.10;99.90;;;;;;6227644;28;88700;-71
2023/09/16 08:29:52;;;;;;;13.65;7.13;;;23.00;99.90;;;;;;6227101;28;89058;-71
2023/09/16 08:32:56;;;;;;;15.35;7.97;;;23.10;99.90;;;;;;6230186;28;89258;-71
2023/09/16 08:35:58;;;;;;;11.52;7.38;;;23.10;99.90;;;;;;6230186;28;89967;-71
2023/09/16 08:39:00;;;;;;;11.93;7.07;;;23.10;99.90;;;;;;6231112;28;89348;-71
2023/09/16 08:42:08;;;;;;;10.27;6.63;;;23.10;99.90;;;;;;6226078;28;89061;-71
2023/09/16 08:45:15;;;;;;;12.52;6.45;;;23.10;99.90;;;;;;6230357;28;89048;-71
2023/09/16 08:48:22;;;;;;;8.82;6.57;;;23.10;99.90;;;;;;6228011;28;89268;-71
2023/09/16 08:51:25;;;;;;;14.02;6.25;;;23.10;99.90;;;;;;6225709;28;89045;-71
2023/09/16 08:54:29;;;;;;;9.82;6.30;;;23.10;99.90;;;;;;6222320;28;87999;-70
2023/09/16 08:57:31;;;;;;;8.85;6.13;;;23.20;99.90;;;;;;6227601;28;88954;-70
2023/09/16 09:00:34;;;;;;;12.45;6.30;;;23.30;99.90;;;;;;6230686;28;89583;-70
2023/09/16 09:03:37;;;;;;;10.35;5.95;;;23.30;99.90;;;;;;6231333;28;89248;-70
2023/09/16 09:06:40;;;;;;;11.60;5.97;;;23.40;99.90;;;;;;6230870;28;89982;-70
2023/09/16 09:09:42;;;;;;;11.57;6.18;;;23.40;99.90;;;;;;6233933;28;89094;-70
2023/09/16 09:12:45;;;;;;;8.77;5.72;;;23.50;99.90;;;;;;6233832;28;89091;-70
2023/09/16 09:15:48;;;;;;;8.77;5.55;;;23.50;99.90;;;;;;6232310;28;89135;-70
2023/09/16 09:18:54;;;;;;;7.93;5.22;;;23.50;99.90;;;;;;6234079;28;89101;-70
2023/09/16 09:21:57;;;;;;;9.20;5.70;;;23.60;99.90;;;;;;6227153;28;89042;-70
2023/09/16 09:24:59;;;;;;;8.73;5.95;;;23.50;99.90;;;;;;6231526;28;89031;-70
2023/09/16 09:28:01;;;;;;;7.35;5.40;;;23.50;99.90;;;;;;6232022;28;88673;-70
2023/09/16 09:31:03;;;;;;;6.00;5.10;;;23.50;99.90;;;;;;6233727;28;89066;-69
2023/09/16 09:34:16;;;;;;;7.07;5.28;;;23.50;99.90;;;;;;6232598;28;89252;-70
2023/09/16 09:37:18;;;;;;;7.65;5.25;;;23.50;99.90;;;;;;6231712;28;90160;-70
2023/09/16 09:40:21;;;;;;;6.43;5.45;;;23.50;99.90;;;;;;6233279;28;89020;-70
2023/09/16 09:43:23;;;;;;;7.35;5.45;;;23.50;99.90;;;;;;6231671;28;89244;-70
2023/09/16 09:46:25;;;;;;;7.13;5.57;;;23.50;99.90;;;;;;6225431;28;89042;-70
2023/09/16 09:49:28;;;;;;;8.35;5.65;;;23.50;99.90;;;;;;6226459;28;89155;-70
2023/09/16 09:52:31;;;;;;;6.43;5.22;;;23.50;99.90;;;;;;6234212;27;87954;-70
2023/09/16 09:55:33;;;;;;;5.82;5.20;;;23.40;99.90;;;;;;6224864;28;87792;-71
2023/09/16 09:58:35;;;;;;;5.90;5.25;;;23.40;99.90;;;;;;6228923;28;89368;-72
2023/09/16 10:01:39;;;;;;;6.40;4.82;;;23.40;99.90;;;;;;6229667;28;88955;-72
2023/09/16 10:04:43;;;;;;;8.15;4.70;;;23.40;99.90;;;;;;6227671;28;88128;-71
2023/09/16 10:07:46;;;;;;;6.50;4.70;;;23.40;99.90;;;;;;6231128;28;90042;-73
2023/09/16 10:10:49;;;;;;;8.48;5.13;;;23.40;99.90;;;;;;6231622;28;89426;-72
2023/09/16 10:13:51;;;;;;;11.43;5.90;;;23.40;99.90;;;;;;6232815;28;88958;-72
2023/09/16 10:16:53;;;;;;;7.68;5.25;;;23.40;99.90;;;;;;6227196;28;89214;-72
2023/09/16 10:19:57;;;;;;;6.43;4.95;;;23.40;99.90;;;;;;6226423;28;87960;-72
2023/09/16 10:23:00;;;;;;;7.72;5.25;;;23.40;99.90;;;;;;6231832;28;89057;-72
2023/09/16 10:26:03;;;;;;;6.43;5.30;;;23.40;99.90;;;;;;6230106;28;88996;-71
2023/09/16 10:29:07;;;;;;;8.80;5.60;;;23.40;99.90;;;;;;6233586;28;88687;-71
2023/09/16 10:32:09;;;;;;;6.25;5.28;;;23.40;99.90;;;;;;6231152;28;88155;-70
2023/09/16 10:35:12;;;;;;;6.65;5.20;;;23.40;99.90;;;;;;6231876;28;89068;-71
2023/09/16 10:38:14;;;;;;;5.88;5.10;;;23.40;99.90;;;;;;6230978;28;90071;-71
2023/09/16 10:41:18;;;;;;;5.78;5.22;;;23.40;99.90;;;;;;6221623;28;90257;-71
2023/09/16 10:44:21;;;;;;;5.40;4.90;;;23.40;99.90;;;;;;6231007;28;87960;-71
2023/09/16 10:47:24;;;;;;;5.22;4.72;;;23.40;99.90;;;;;;6232470;28;89069;-71
2023/09/16 10:50:30;;;;;;;5.20;4.70;;;23.30;99.90;;;;;;6230068;28;89029;-71
2023/09/16 10:53:36;;;;;;;5.18;4.70;;;23.40;99.90;;;;;;6230954;28;89372;-71
2023/09/16 10:56:44;;;;;;;5.38;4.88;;;23.30;99.90;;;;;;6231854;28;90120;-72
2023/09/16 10:59:52;;;;;;;5.30;4.80;;;23.30;99.90;;;;;;6232570;28;88485;-70
2023/09/16 11:02:58;;;;;;;7.50;5.28;;;23.30;99.90;;;;;;6231888;28;89426;-71
2023/09/16 11:06:02;;;;;;;6.65;5.68;;;23.30;99.90;;;;;;6225740;28;88890;-71
2023/09/16 11:09:05;;;;;;;5.30;4.80;;;23.30;99.90;;;;;;6232394;28;92144;-72
2023/09/16 11:12:08;;;;;;;5.68;5.18;;;23.30;99.90;;;;;;6220060;28;89001;-73
2023/09/16 11:15:11;;;;;;;5.93;5.43;;;23.30;99.90;;;;;;6231118;28;89125;-71
2023/09/16 11:18:16;;;;;;;5.22;4.72;;;23.30;99.90;;;;;;6231484;28;88992;-72
2023/09/16 11:21:21;;;;;;;6.63;4.82;;;23.30;99.90;;;;;;6227551;28;88993;-72
2023/09/16 11:24:23;;;;;;;6.13;5.30;;;23.30;99.90;;;;;;6225549;28;90708;-71
2023/09/16 11:27:26;;;;;;;6.40;5.60;;;23.30;99.90;;;;;;6230992;28;89111;-71
2023/09/16 11:30:28;;;;;;;7.60;6.10;;;23.30;99.90;;;;;;6225743;28;88288;-70
2023/09/16 11:33:32;;;;;;;7.43;6.68;;;23.30;99.90;;;;;;6229847;28;89029;-71
2023/09/16 11:36:36;;;;;;;6.88;6.28;;;23.30;99.90;;;;;;6230538;28;89077;-72
2023/09/16 11:39:42;;;;;;;7.85;6.68;;;23.40;99.90;;;;;;6228462;28;91141;-71
2023/09/16 11:42:44;;;;;;;10.90;7.10;;;23.40;99.90;;;;;;6230971;28;89271;-71
2023/09/16 11:45:46;;;;;;;7.38;6.50;;;23.50;99.90;;;;;;6229874;28;89949;-73
2023/09/16 11:48:52;;;;;;;6.50;5.82;;;23.50;99.90;;;;;;6230658;28;89044;-72
2023/09/16 11:51:55;;;;;;;6.22;5.72;;;23.50;99.90;;;;;;6227030;28;89076;-72
2023/09/16 11:54:58;;;;;;;6.70;6.10;;;23.50;99.90;;;;;;6231794;28;89088;-72
2023/09/16 11:58:00;;;;;;;6.40;5.80;;;23.60;99.90;;;;;;6228337;28;88040;-71
2023/09/16 12:01:02;;;;;;;6.25;5.65;;;23.50;99.90;;;;;;6230179;28;88306;-70
2023/09/16 12:04:08;;;;;;;5.93;5.40;;;23.50;99.90;;;;;;6229589;28;89069;-72
2023/09/16 12:07:12;;;;;;;5.80;5.30;;;23.60;99.90;;;;;;6230821;28;88892;-72
2023/09/16 12:10:14;;;;;;;5.82;5.32;;;23.50;99.90;;;;;;6228788;28;89960;-71
2023/09/16 12:13:27;;;;;;;6.15;5.65;;;23.50;99.90;;;;;;6230335;28;89044;-72
2023/09/16 12:16:29;;;;;;;6.03;5.43;;;23.50;99.90;;;;;;6230962;28;89044;-74
2023/09/16 12:19:31;;;;;;;6.30;5.70;;;23.50;99.90;;;;;;6220748;28;89039;-74
2023/09/16 12:22:35;;;;;;;6.13;5.50;;;23.50;99.90;;;;;;6229573;28;89463;-72
2023/09/16 12:25:40;;;;;;;6.85;5.50;;;23.40;99.90;;;;;;6222716;28;87944;-72
2023/09/16 12:28:42;;;;;;;5.22;4.72;;;23.50;99.90;;;;;;6232535;28;88960;-72
2023/09/16 12:31:45;;;;;;;9.73;5.20;;;23.50;99.90;;;;;;6229430;28;88680;-72
2023/09/16 12:35:03;;;;;;;5.38;4.88;;;23.50;99.90;;;;;;6230147;28;89092;-72
2023/09/16 12:38:07;;;;;;;5.43;4.93;;;23.50;99.90;;;;;;6231223;28;89190;-71
2023/09/16 12:41:12;;;;;;;5.15;4.65;;;23.50;99.90;;;;;;6230053;28;91255;-72
2023/09/16 12:44:14;;;;;;;5.22;4.80;;;23.50;99.90;;;;;;6230223;28;89275;-72
2023/09/16 12:47:17;;;;;;;5.57;4.88;;;23.50;99.90;;;;;;6230146;28;89035;-71
2023/09/16 12:50:19;;;;;;;5.20;4.80;;;23.50;99.90;;;;;;6229716;28;87991;-73
2023/09/16 12:53:25;;;;;;;6.00;4.70;;;23.50;99.90;;;;;;6230262;28;88994;-73
2023/09/16 12:56:27;;;;;;;5.93;4.80;;;23.50;99.90;;;;;;6228624;28;89491;-72
2023/09/16 12:59:29;;;;;;;5.47;4.53;;;23.50;99.90;;;;;;6230604;28;87960;-72
2023/09/16 13:02:35;;;;;;;5.63;4.78;;;23.50;99.90;;;;;;6229980;28;88340;-71
2023/09/16 13:05:38;;;;;;;5.00;4.60;;;23.50;99.90;;;;;;6230743;28;88139;-72
2023/09/16 13:08:43;;;;;;;6.00;4.60;;;23.50;99.90;;;;;;6229307;28;87042;-72
2023/09/16 13:11:50;;;;;;;4.70;4.30;;;23.50;99.90;;;;;;6227297;28;89802;-72
2023/09/16 13:14:52;;;;;;;5.47;4.40;;;23.50;99.90;;;;;;6230036;28;89341;-72
2023/09/16 13:17:58;;;;;;;5.03;4.57;;;23.50;99.90;;;;;;6221877;28;89183;-71
2023/09/16 13:21:00;;;;;;;5.30;4.80;;;23.60;99.90;;;;;;6222307;28;89032;-72
2023/09/16 13:24:04;;;;;;;5.22;4.72;;;23.50;99.90;;;;;;6228703;28;89057;-72
2023/09/16 13:27:09;;;;;;;5.63;4.93;;;23.50;99.90;;;;;;6227931;28;89127;-72
2023/09/16 13:30:12;;;;;;;5.30;4.80;;;23.50;99.90;;;;;;6229458;28;89251;-72
2023/09/16 13:33:14;;;;;;;6.80;5.10;;;23.50;99.90;;;;;;6228711;28;88253;-72
2023/09/16 13:36:17;;;;;;;5.05;4.65;;;23.50;99.90;;;;;;6229695;28;89131;-72
2023/09/16 13:39:21;;;;;;;5.03;4.63;;;23.50;99.90;;;;;;6216269;28;88981;-72
2023/09/16 13:42:25;;;;;;;5.63;5.13;;;23.50;99.90;;;;;;6229363;28;89062;-72
2023/09/16 13:45:28;;;;;;;5.30;4.90;;;23.50;99.90;;;;;;6233383;28;88100;-72
2023/09/16 13:48:33;;;;;;;5.72;5.18;;;23.50;99.90;;;;;;6232806;28;89137;-72
2023/09/16 13:51:37;;;;;;;6.32;5.35;;;23.50;99.90;;;;;;6233220;28;87004;-70
2023/09/16 13:54:42;;;;;;;6.18;5.15;;;23.50;99.90;;;;;;6224844;28;88024;-69
2023/09/16 13:57:45;;;;;;;5.30;4.80;;;23.50;99.90;;;;;;6234331;28;87982;-70
2023/09/16 14:00:49;;;;;;;5.00;4.50;;;23.50;99.90;;;;;;6232484;28;88866;-70
2023/09/16 14:03:53;;;;;;;5.60;5.10;;;23.60;99.90;;;;;;6226966;28;87076;-70
2023/09/16 14:06:56;;;;;;;4.88;4.47;;;23.50;99.90;;;;;;6232490;28;88085;-70
2023/09/16 14:10:01;;;;;;;5.85;4.60;;;23.60;99.90;;;;;;6233029;28;88345;-71
2023/09/16 14:13:08;;;;;;;5.13;4.72;;;23.50;99.90;;;;;;6226261;28;89146;-70
2023/09/16 14:16:12;;;;;;;5.03;4.63;;;23.50;99.90;;;;;;6228101;28;87989;-70
2023/09/16 14:19:19;;;;;;;5.15;4.65;;;23.60;99.90;;;;;;6233901;28;88034;-70
2023/09/16 14:22:23;;;;;;;4.85;4.45;;;23.50;99.90;;;;;;6233580;28;90438;-71
2023/09/16 14:25:28;;;;;;;4.78;4.38;;;23.50;99.90;;;;;;6230274;28;87983;-70
2023/09/16 14:28:32;;;;;;;4.68;4.28;;;23.60;99.90;;;;;;6229298;28;88678;-70
2023/09/16 14:31:36;;;;;;;4.55;4.15;;;23.60;99.90;;;;;;6232890;28;88094;-70
2023/09/16 14:34:40;;;;;;;4.40;4.00;;;23.60;99.90;;;;;;6233362;28;87648;-70
2023/09/16 14:37:43;;;;;;;4.10;3.80;;;23.60;99.90;;;;;;6232301;28;88088;-70
2023/09/16 14:40:48;;;;;;;4.50;4.10;;;23.60;99.90;;;;;;6232848;28;87027;-70
2023/09/16 14:43:52;;;;;;;5.97;4.30;;;23.60;99.90;;;;;;6232326;28;88656;-70
2023/09/16 14:46:56;;;;;;;5.00;4.55;;;23.60;99.90;;;;;;6232576;28;89383;-70
2023/09/16 14:49:59;;;;;;;5.90;4.68;;;23.60;99.90;;;;;;6231897;28;88058;-70
2023/09/16 14:53:06;;;;;;;4.43;4.03;;;23.60;99.90;;;;;;6232295;28;88016;-70
2023/09/16 14:56:11;;;;;;;4.40;4.00;;;23.60;99.90;;;;;;6231334;28;88177;-70
2023/09/16 14:59:15;;;;;;;4.07;3.78;;;23.60;99.90;;;;;;6232849;28;87974;-72
2023/09/16 15:02:18;;;;;;;4.28;3.90;;;23.60;99.90;;;;;;6231125;28;88000;-73
2023/09/16 15:05:22;;;;;;;3.88;3.58;;;23.60;99.90;;;;;;6225581;28;87168;-73
2023/09/16 15:08:25;;;;;;;4.82;4.32;;;23.60;99.90;;;;;;6231971;28;89815;-73
2023/09/16 15:11:30;;;;;;;4.63;4.25;;;23.60;99.90;;;;;;6231788;28;87999;-73
2023/09/16 15:14:33;;;;;;;4.80;4.40;;;23.60;99.90;;;;;;6231785;28;89095;-72
2023/09/16 15:17:37;;;;;;;5.13;4.57;;;23.60;99.90;;;;;;6230354;28;87136;-73
2023/09/16 15:20:39;;;;;;;5.78;4.57;;;23.60;99.90;;;;;;6231423;28;87970;-73
2023/09/16 15:23:43;;;;;;;4.50;4.10;;;23.60;99.90;;;;;;6232006;28;89252;-73
2023/09/16 15:26:50;;;;;;;4.93;4.47;;;23.60;99.90;;;;;;6230932;28;87708;-72
2023/09/16 15:29:53;;;;;;;5.13;4.30;;;23.60;99.90;;;;;;6230470;28;87838;-72
2023/09/16 15:32:56;;;;;;;4.55;4.18;;;23.60;99.90;;;;;;6231021;28;87898;-73
2023/09/16 15:35:59;;;;;;;4.18;3.88;;;23.60;99.90;;;;;;6231359;28;87198;-72
2023/09/16 15:39:03;;;;;;;4.82;4.40;;;23.60;99.90;;;;;;6231064;28;87974;-72
2023/09/16 15:42:08;;;;;;;5.10;4.40;;;23.60;99.90;;;;;;6231867;28;87212;-72
2023/09/16 15:45:15;;;;;;;4.60;4.20;;;23.60;99.90;;;;;;6229436;28;90439;-72
2023/09/16 15:48:18;;;;;;;4.63;4.22;;;23.60;99.90;;;;;;6229766;28;88081;-72
2023/09/16 15:51:22;;;;;;;6.75;4.50;;;23.60;99.90;;;;;;6231245;28;87998;-72